Time;durP1;ratioP1;P1;durP2;ratioP2;P2;SDS_P1;SDS_P2;PMS_P1;PMS_P2;Temp;Humidity;BMP_temperature;BMP_pressure;BME280_temperature;BME280_humidity;BME280_pressure;Samples;Min_cycle;Max_cycle;Signal;HPM_P1;HPM_P2
2022/07/18 00:00:44;;;;;;;130.80;124.30;;;;;;;;;;5041731;28;20032;-69
2022/07/18 00:03:10;;;;;;;156.80;149.02;;;;;;;;;;5044321;28;20113;-69
2022/07/18 00:05:35;;;;;;;151.65;144.10;;;;;;;;;;5039216;28;20065;-70
2022/07/18 00:08:00;;;;;;;154.77;147.10;;;;;;;;;;5044361;28;20100;-70
2022/07/18 00:10:26;;;;;;;179.30;170.40;;;;;;;;;;5043834;28;20072;-69
2022/07/18 00:12:51;;;;;;;158.93;150.98;;;;;;;;;;5040449;28;20057;-71
2022/07/18 00:15:16;;;;;;;153.27;145.63;;;;;;;;;;5042645;28;20028;-69
2022/07/18 00:17:42;;;;;;;163.48;155.40;;;;;;;;;;5039109;28;20052;-68
2022/07/18 00:20:09;;;;;;;184.80;175.70;;;;;;;;;;5052932;28;20085;-68
2022/07/18 00:22:34;;;;;;;168.05;159.75;;;;;;;;;;5045474;28;20434;-68
2022/07/18 00:25:00;;;;;;;142.23;135.07;;;;;;;;;;5045980;28;20028;-68
2022/07/18 00:27:25;;;;;;;146.98;139.68;;;;;;;;;;5041589;28;20029;-69
2022/07/18 00:29:50;;;;;;;152.10;144.50;;;;;;;;;;5044333;28;20033;-69
2022/07/18 00:32:16;;;;;;;98.78;93.82;;;;;;;;;;5044626;28;20087;-66
2022/07/18 00:34:42;;;;;;;68.22;64.78;;;;;;;;;;5041465;28;20049;-63
2022/07/18 00:37:07;;;;;;;119.85;113.80;;;;;;;;;;5037017;28;20459;-61
2022/07/18 00:39:33;;;;;;;78.25;74.30;;;;;;;;;;5042892;28;20534;-62
2022/07/18 00:41:58;;;;;;;74.97;71.18;;;;;;;;;;5042649;28;20048;-61
2022/07/18 00:44:25;;;;;;;83.40;79.03;;;;;;;;;;5045003;28;20028;-61
2022/07/18 00:46:52;;;;;;;108.95;103.38;;;;;;;;;;5040081;28;20095;-61
2022/07/18 00:49:18;;;;;;;84.40;80.20;;;;;;;;;;5042139;28;20025;-60
2022/07/18 00:51:44;;;;;;;91.45;86.85;;;;;;;;;;5039610;28;20044;-62
2022/07/18 00:54:09;;;;;;;97.82;92.93;;;;;;;;;;5039515;28;20021;-62
2022/07/18 00:56:35;;;;;;;112.32;106.70;;;;;;;;;;5042225;28;20055;-63
2022/07/18 00:59:00;;;;;;;107.75;102.38;;;;;;;;;;5042008;28;20033;-64
2022/07/18 01:01:45;;;;;;;61.88;58.65;;;;;;;;;;5040642;28;20037;-64
2022/07/18 01:04:15;;;;;;;69.20;65.68;;;;;;;;;;5046460;28;20087;-65
2022/07/18 01:06:41;;;;;;;105.43;100.00;;;;;;;;;;5045328;28;20040;-65
2022/07/18 01:09:06;;;;;;;186.10;176.65;;;;;;;;;;5042904;28;20101;-65
2022/07/18 01:11:33;;;;;;;117.63;111.47;;;;;;;;;;5040009;28;20029;-66
2022/07/18 01:14:01;;;;;;;82.05;77.85;;;;;;;;;;5041920;28;20063;-66
2022/07/18 01:16:26;;;;;;;63.13;59.88;;;;;;;;;;5046221;28;20036;-66
2022/07/18 01:18:52;;;;;;;70.72;67.07;;;;;;;;;;5045228;28;20024;-66
2022/07/18 01:21:17;;;;;;;59.25;56.20;;;;;;;;;;5042181;28;20672;-67
2022/07/18 01:23:44;;;;;;;98.53;93.57;;;;;;;;;;5038587;28;20048;-67
2022/07/18 01:26:12;;;;;;;98.30;93.10;;;;;;;;;;5042164;28;20064;-67
2022/07/18 01:28:38;;;;;;;137.70;130.63;;;;;;;;;;5039610;28;20494;-68
2022/07/18 01:31:03;;;;;;;120.10;114.10;;;;;;;;;;5042104;28;20513;-68
2022/07/18 01:33:31;;;;;;;148.25;140.77;;;;;;;;;;5045926;28;20028;-68
2022/07/18 01:36:01;;;;;;;124.32;118.03;;;;;;;;;;5045248;28;20033;-69
2022/07/18 01:38:28;;;;;;;139.48;132.43;;;;;;;;;;5041611;28;20029;-68
2022/07/18 01:40:53;;;;;;;193.25;183.55;;;;;;;;;;5039101;28;20047;-69
2022/07/18 01:43:19;;;;;;;130.75;124.15;;;;;;;;;;5042230;28;20382;-69
2022/07/18 01:45:44;;;;;;;176.75;167.85;;;;;;;;;;5041789;28;20543;-70
2022/07/18 01:48:10;;;;;;;170.98;162.32;;;;;;;;;;5044570;28;20463;-69
2022/07/18 01:50:35;;;;;;;185.65;176.20;;;;;;;;;;5045481;28;20048;-70
2022/07/18 01:53:00;;;;;;;124.65;118.35;;;;;;;;;;5042242;28;20639;-70
2022/07/18 01:55:26;;;;;;;128.60;122.10;;;;;;;;;;5042440;28;20128;-70
2022/07/18 01:57:51;;;;;;;111.53;105.90;;;;;;;;;;5037632;28;20044;-70
2022/07/18 02:00:16;;;;;;;190.25;180.23;;;;;;;;;;5043628;28;20021;-71
2022/07/18 02:02:42;;;;;;;160.73;152.60;;;;;;;;;;5045766;28;20328;-70
2022/07/18 02:05:08;;;;;;;208.07;197.55;;;;;;;;;;5040116;28;20490;-70
2022/07/18 02:07:37;;;;;;;177.35;168.32;;;;;;;;;;5042351;28;20637;-71
2022/07/18 02:10:08;;;;;;;169.73;161.18;;;;;;;;;;5039356;28;20131;-70
2022/07/18 02:12:34;;;;;;;150.40;142.65;;;;;;;;;;5040078;28;20025;-70
2022/07/18 02:15:00;;;;;;;180.13;170.82;;;;;;;;;;5039100;28;20037;-70
2022/07/18 02:17:25;;;;;;;166.10;157.70;;;;;;;;;;5041851;28;20047;-69
2022/07/18 02:19:51;;;;;;;159.98;151.88;;;;;;;;;;5041036;28;20032;-69
2022/07/18 02:22:16;;;;;;;206.45;196.05;;;;;;;;;;5038881;28;20024;-69
2022/07/18 02:24:42;;;;;;;192.18;182.25;;;;;;;;;;5041038;28;20028;-69
2022/07/18 02:27:08;;;;;;;42.67;40.38;;;;;;;;;;5045309;28;20165;-70
2022/07/18 02:29:33;;;;;;;78.97;74.95;;;;;;;;;;5036742;28;20033;-70
2022/07/18 02:31:59;;;;;;;183.38;173.98;;;;;;;;;;5041178;28;20025;-70
2022/07/18 02:34:24;;;;;;;59.42;56.38;;;;;;;;;;5042921;28;20037;-70
2022/07/18 02:36:50;;;;;;;80.18;76.07;;;;;;;;;;5039416;28;20018;-70
2022/07/18 02:39:16;;;;;;;65.07;61.78;;;;;;;;;;5042079;28;20454;-70
2022/07/18 02:41:42;;;;;;;114.15;108.43;;;;;;;;;;5042513;28;20057;-70
2022/07/18 02:44:08;;;;;;;77.57;73.60;;;;;;;;;;5039665;28;20033;-70
2022/07/18 02:46:33;;;;;;;90.70;86.15;;;;;;;;;;5034389;28;20095;-70
2022/07/18 02:48:59;;;;;;;79.50;75.45;;;;;;;;;;5041680;28;20044;-69
2022/07/18 02:51:24;;;;;;;46.88;44.47;;;;;;;;;;5040729;28;20847;-69
2022/07/18 02:53:49;;;;;;;94.82;90.03;;;;;;;;;;5041938;28;20115;-70
2022/07/18 02:56:15;;;;;;;102.85;97.60;;;;;;;;;;5041240;28;20018;-70
2022/07/18 02:58:40;;;;;;;68.00;64.53;;;;;;;;;;5037244;28;20037;-70
2022/07/18 03:01:06;;;;;;;100.20;95.13;;;;;;;;;;5043878;28;20097;-69
2022/07/18 03:03:31;;;;;;;113.18;107.35;;;;;;;;;;5038553;28;20026;-70
2022/07/18 03:05:56;;;;;;;214.07;203.38;;;;;;;;;;5043775;28;20446;-70
2022/07/18 03:08:22;;;;;;;185.18;175.77;;;;;;;;;;5042542;28;20661;-71
2022/07/18 03:10:47;;;;;;;98.85;93.75;;;;;;;;;;5042831;28;20108;-69
2022/07/18 03:13:13;;;;;;;80.45;76.20;;;;;;;;;;5039111;28;20048;-69
2022/07/18 03:15:39;;;;;;;214.95;204.15;;;;;;;;;;5039976;28;20041;-69
2022/07/18 03:18:04;;;;;;;173.23;164.48;;;;;;;;;;5036569;28;20022;-69
2022/07/18 03:20:30;;;;;;;149.35;141.70;;;;;;;;;;5036831;28;20567;-70
2022/07/18 03:22:56;;;;;;;189.10;179.27;;;;;;;;;;5036276;28;20036;-70
2022/07/18 03:25:22;;;;;;;134.43;127.40;;;;;;;;;;5040961;28;20093;-69
2022/07/18 03:27:47;;;;;;;87.55;82.95;;;;;;;;;;5043549;28;20072;-69
2022/07/18 03:30:12;;;;;;;86.53;81.95;;;;;;;;;;5044759;28;20037;-70
2022/07/18 03:32:38;;;;;;;184.45;174.90;;;;;;;;;;5046480;28;20041;-71
2022/07/18 03:35:05;;;;;;;123.97;117.47;;;;;;;;;;5046278;28;20033;-70
2022/07/18 03:37:30;;;;;;;94.70;89.63;;;;;;;;;;5040059;28;20479;-70
2022/07/18 03:39:56;;;;;;;93.50;88.60;;;;;;;;;;5042989;28;20037;-70
2022/07/18 03:42:21;;;;;;;120.57;114.57;;;;;;;;;;5045413;28;20149;-71
2022/07/18 03:44:46;;;;;;;103.18;97.80;;;;;;;;;;5044725;28;20028;-70
2022/07/18 03:47:12;;;;;;;115.97;109.82;;;;;;;;;;5044874;28;20029;-70
2022/07/18 03:49:37;;;;;;;190.40;180.82;;;;;;;;;;5039799;28;20061;-70
2022/07/18 03:52:03;;;;;;;191.23;181.55;;;;;;;;;;5041522;28;20090;-72
2022/07/18 03:54:28;;;;;;;72.97;69.20;;;;;;;;;;5037709;28;20514;-71
2022/07/18 03:56:54;;;;;;;185.65;176.23;;;;;;;;;;5038317;28;20032;-72
2022/07/18 03:59:19;;;;;;;178.00;168.82;;;;;;;;;;5041818;28;20127;-73
2022/07/18 04:01:45;;;;;;;149.30;141.82;;;;;;;;;;5042271;28;20037;-71
2022/07/18 04:04:10;;;;;;;204.52;194.35;;;;;;;;;;5041501;28;20040;-72
2022/07/18 04:06:35;;;;;;;172.35;163.63;;;;;;;;;;5041040;28;20029;-72
2022/07/18 04:09:01;;;;;;;133.38;126.65;;;;;;;;;;5039119;28;20044;-72
2022/07/18 04:11:26;;;;;;;134.68;127.88;;;;;;;;;;5041627;28;20410;-72
2022/07/18 04:13:53;;;;;;;145.98;138.55;;;;;;;;;;5043663;28;20096;-70
2022/07/18 04:16:18;;;;;;;146.10;138.80;;;;;;;;;;5042209;28;20470;-70
2022/07/18 04:18:44;;;;;;;103.75;98.50;;;;;;;;;;5035931;28;20037;-70
2022/07/18 04:21:09;;;;;;;137.73;130.77;;;;;;;;;;5041245;28;20037;-70
2022/07/18 04:23:34;;;;;;;97.35;92.45;;;;;;;;;;5040567;28;20037;-71
2022/07/18 04:26:01;;;;;;;142.50;135.38;;;;;;;;;;5037926;28;20098;-70
2022/07/18 04:28:26;;;;;;;101.43;96.32;;;;;;;;;;5041104;28;20127;-70
2022/07/18 04:30:52;;;;;;;98.00;93.10;;;;;;;;;;5039568;28;20060;-69
2022/07/18 04:33:17;;;;;;;73.57;69.82;;;;;;;;;;5038580;28;20094;-69
2022/07/18 04:35:42;;;;;;;93.85;89.15;;;;;;;;;;5039211;28;20493;-68
2022/07/18 04:38:10;;;;;;;117.30;111.43;;;;;;;;;;5041163;28;20655;-68
2022/07/18 04:40:35;;;;;;;104.47;99.25;;;;;;;;;;5042797;28;20118;-71
2022/07/18 04:43:02;;;;;;;105.18;99.93;;;;;;;;;;5040151;28;20052;-70
2022/07/18 04:45:27;;;;;;;122.00;115.80;;;;;;;;;;5043560;28;20041;-70
2022/07/18 04:47:54;;;;;;;120.35;114.32;;;;;;;;;;5041320;28;20039;-70
2022/07/18 04:50:20;;;;;;;60.80;57.70;;;;;;;;;;5041610;28;20028;-71
2022/07/18 04:52:47;;;;;;;113.90;108.22;;;;;;;;;;5042076;28;20037;-69
2022/07/18 04:55:15;;;;;;;89.95;85.38;;;;;;;;;;5037722;28;20025;-69
2022/07/18 04:57:40;;;;;;;165.95;157.63;;;;;;;;;;5038834;28;20029;-71
2022/07/18 05:00:09;;;;;;;87.35;82.90;;;;;;;;;;5041376;28;20195;-71
2022/07/18 05:02:34;;;;;;;137.23;130.25;;;;;;;;;;5034755;28;20043;-70
2022/07/18 05:04:59;;;;;;;128.77;122.07;;;;;;;;;;5041513;28;20036;-71
2022/07/18 05:07:25;;;;;;;192.48;182.75;;;;;;;;;;5040550;28;20901;-71
2022/07/18 05:09:50;;;;;;;70.38;66.80;;;;;;;;;;5042815;28;20025;-68
2022/07/18 05:12:18;;;;;;;157.68;149.57;;;;;;;;;;5037216;28;20036;-69
2022/07/18 05:14:43;;;;;;;99.43;94.20;;;;;;;;;;5035836;28;20072;-73
2022/07/18 05:17:09;;;;;;;149.88;142.05;;;;;;;;;;5032490;28;20025;-70
2022/07/18 05:19:34;;;;;;;137.73;130.75;;;;;;;;;;5037329;28;20282;-71
2022/07/18 05:21:59;;;;;;;213.65;202.73;;;;;;;;;;5038996;28;20446;-70
2022/07/18 05:24:25;;;;;;;222.40;210.77;;;;;;;;;;5036508;28;20060;-70
2022/07/18 05:26:50;;;;;;;272.63;259.13;;;;;;;;;;5035105;28;20398;-70
2022/07/18 05:29:15;;;;;;;152.38;144.52;;;;;;;;;;5040063;28;20029;-72
2022/07/18 05:31:41;;;;;;;168.93;160.48;;;;;;;;;;5033817;28;20044;-72
2022/07/18 05:34:07;;;;;;;196.13;186.27;;;;;;;;;;5036086;28;20478;-73
2022/07/18 05:36:32;;;;;;;182.68;173.65;;;;;;;;;;5035775;28;20033;-72
2022/07/18 05:38:58;;;;;;;52.45;49.78;;;;;;;;;;5035745;28;20032;-73
2022/07/18 05:41:23;;;;;;;79.85;75.88;;;;;;;;;;5039067;28;20032;-71
2022/07/18 05:43:48;;;;;;;45.10;42.83;;;;;;;;;;5034240;28;20051;-72
2022/07/18 05:46:14;;;;;;;55.78;52.92;;;;;;;;;;5037476;28;20029;-71
2022/07/18 05:48:39;;;;;;;23.15;21.85;;;;;;;;;;5032386;28;20055;-71
2022/07/18 05:51:06;;;;;;;31.02;29.42;;;;;;;;;;5042039;28;20037;-72
2022/07/18 05:53:31;;;;;;;30.88;29.25;;;;;;;;;;5034930;28;20048;-68
2022/07/18 05:55:57;;;;;;;28.65;27.15;;;;;;;;;;5034806;28;20037;-73
2022/07/18 05:58:22;;;;;;;33.15;31.45;;;;;;;;;;5034114;28;20600;-72
2022/07/18 06:00:48;;;;;;;32.35;30.65;;;;;;;;;;5036016;28;20040;-71
2022/07/18 06:03:13;;;;;;;51.50;48.88;;;;;;;;;;5035698;28;20025;-72
2022/07/18 06:05:39;;;;;;;28.40;26.90;;;;;;;;;;5035726;28;20072;-71
2022/07/18 06:08:05;;;;;;;32.83;31.08;;;;;;;;;;5037828;28;20028;-69
2022/07/18 06:10:30;;;;;;;33.38;31.63;;;;;;;;;;5031984;28;20675;-71
2022/07/18 06:12:56;;;;;;;43.25;41.05;;;;;;;;;;5040395;28;20040;-72
2022/07/18 06:15:21;;;;;;;37.92;35.85;;;;;;;;;;5040141;28;20024;-72
2022/07/18 06:17:47;;;;;;;37.70;35.70;;;;;;;;;;5042732;28;20037;-70
2022/07/18 06:20:13;;;;;;;46.00;43.67;;;;;;;;;;5043777;28;20065;-72
2022/07/18 06:22:38;;;;;;;55.03;52.22;;;;;;;;;;5033091;28;20131;-73
2022/07/18 06:25:04;;;;;;;54.72;51.97;;;;;;;;;;5035870;28;20188;-72
2022/07/18 06:27:30;;;;;;;52.40;49.75;;;;;;;;;;5035183;28;20029;-71
2022/07/18 06:29:55;;;;;;;56.55;53.67;;;;;;;;;;5033824;28;20366;-70
2022/07/18 06:32:20;;;;;;;52.28;49.63;;;;;;;;;;5040763;28;20060;-70
2022/07/18 06:34:46;;;;;;;59.72;56.72;;;;;;;;;;5041527;28;20043;-71
2022/07/18 06:37:11;;;;;;;48.88;46.38;;;;;;;;;;5042498;28;20124;-70
2022/07/18 06:39:37;;;;;;;53.28;50.58;;;;;;;;;;5039437;28;20112;-70
2022/07/18 06:42:02;;;;;;;45.13;42.83;;;;;;;;;;5038521;28;20033;-70
2022/07/18 06:44:29;;;;;;;53.17;50.50;;;;;;;;;;5036177;28;20549;-69
2022/07/18 06:46:54;;;;;;;63.53;60.35;;;;;;;;;;5040348;28;20585;-70
2022/07/18 06:49:19;;;;;;;46.70;44.30;;;;;;;;;;5041334;28;20030;-71
2022/07/18 06:51:45;;;;;;;55.22;52.38;;;;;;;;;;5040992;28;20343;-69
2022/07/18 06:54:10;;;;;;;54.38;51.63;;;;;;;;;;5036689;28;20105;-70
2022/07/18 06:56:36;;;;;;;57.58;54.67;;;;;;;;;;5035167;28;20028;-68
2022/07/18 06:59:01;;;;;;;49.35;46.85;;;;;;;;;;5034606;28;20434;-70
2022/07/18 07:01:26;;;;;;;77.32;73.47;;;;;;;;;;5035112;28;20886;-70
2022/07/18 07:03:52;;;;;;;68.07;64.68;;;;;;;;;;5041302;28;20144;-70
2022/07/18 07:06:17;;;;;;;83.68;79.50;;;;;;;;;;5044162;28;20680;-68
2022/07/18 07:08:43;;;;;;;98.65;93.68;;;;;;;;;;5046804;28;20032;-69
2022/07/18 07:11:09;;;;;;;48.65;46.17;;;;;;;;;;5043981;28;20140;-70
2022/07/18 07:13:34;;;;;;;57.50;54.60;;;;;;;;;;5043727;28;20112;-68
2022/07/18 07:16:00;;;;;;;104.88;99.63;;;;;;;;;;5042922;28;20036;-69
2022/07/18 07:18:25;;;;;;;137.77;130.68;;;;;;;;;;5049574;28;20093;-70
2022/07/18 07:20:50;;;;;;;74.57;70.85;;;;;;;;;;5043417;28;20091;-69
2022/07/18 07:23:16;;;;;;;160.50;152.32;;;;;;;;;;5043437;28;20518;-69
2022/07/18 07:25:42;;;;;;;118.97;112.97;;;;;;;;;;5045680;28;20029;-69
2022/07/18 07:28:07;;;;;;;67.28;63.67;;;;;;;;;;5041927;28;20036;-70
2022/07/18 07:30:33;;;;;;;160.40;152.20;;;;;;;;;;5038210;28;20036;-68
2022/07/18 07:33:00;;;;;;;122.05;115.90;;;;;;;;;;5037979;28;20502;-71
2022/07/18 07:35:26;;;;;;;141.38;134.13;;;;;;;;;;5040771;28;20029;-69
2022/07/18 07:37:56;;;;;;;105.25;100.07;;;;;;;;;;5044794;28;20051;-71
2022/07/18 07:40:24;;;;;;;98.05;93.20;;;;;;;;;;5042562;28;20744;-71
2022/07/18 07:42:50;;;;;;;143.90;136.68;;;;;;;;;;5041201;28;20033;-70
2022/07/18 07:45:16;;;;;;;119.13;113.18;;;;;;;;;;5042883;28;20267;-71
2022/07/18 07:47:42;;;;;;;107.80;102.47;;;;;;;;;;5039640;28;20037;-69
2022/07/18 07:50:09;;;;;;;142.20;134.95;;;;;;;;;;5038188;28;20071;-69
2022/07/18 07:52:35;;;;;;;99.90;94.95;;;;;;;;;;5043245;28;20112;-70
2022/07/18 07:55:00;;;;;;;147.63;140.20;;;;;;;;;;5041457;28;20174;-70
2022/07/18 07:57:26;;;;;;;73.43;69.75;;;;;;;;;;5041444;28;20033;-68
2022/07/18 07:59:52;;;;;;;156.90;149.00;;;;;;;;;;5037189;28;20036;-70
2022/07/18 08:02:18;;;;;;;114.03;108.40;;;;;;;;;;5038160;28;20039;-70
2022/07/18 08:04:44;;;;;;;76.80;72.88;;;;;;;;;;5037202;28;20036;-70
2022/07/18 08:07:11;;;;;;;123.97;117.82;;;;;;;;;;5036912;28;20194;-70
2022/07/18 08:09:36;;;;;;;74.63;70.90;;;;;;;;;;5037142;28;20033;-70
2022/07/18 08:12:02;;;;;;;155.85;147.95;;;;;;;;;;5038326;28;20036;-70
2022/07/18 08:14:27;;;;;;;90.43;85.93;;;;;;;;;;5039693;28;20024;-70
2022/07/18 08:16:53;;;;;;;118.13;112.28;;;;;;;;;;5038083;28;20086;-69
2022/07/18 08:19:18;;;;;;;144.45;137.27;;;;;;;;;;5043533;28;20036;-69
2022/07/18 08:21:44;;;;;;;108.22;102.88;;;;;;;;;;5039417;28;20040;-67
2022/07/18 08:24:09;;;;;;;99.63;94.72;;;;;;;;;;5041938;28;20122;-68
2022/07/18 08:26:38;;;;;;;118.70;112.85;;;;;;;;;;5039513;28;20052;-69
2022/07/18 08:29:04;;;;;;;114.07;108.40;;;;;;;;;;5034335;28;20025;-68
2022/07/18 08:31:30;;;;;;;110.03;104.55;;;;;;;;;;5036528;28;20039;-68
2022/07/18 08:33:55;;;;;;;149.27;141.90;;;;;;;;;;5039669;28;20025;-69
2022/07/18 08:36:20;;;;;;;157.52;149.73;;;;;;;;;;5041619;28;20161;-68
2022/07/18 08:38:46;;;;;;;113.68;108.03;;;;;;;;;;5042385;28;20029;-69
2022/07/18 08:41:11;;;;;;;113.00;107.38;;;;;;;;;;5034495;28;20436;-69
2022/07/18 08:43:38;;;;;;;128.35;121.95;;;;;;;;;;5033975;28;20138;-69
2022/07/18 08:46:05;;;;;;;173.38;164.75;;;;;;;;;;5035821;28;20042;-69
2022/07/18 08:48:31;;;;;;;108.00;102.65;;;;;;;;;;5034316;28;20055;-67
2022/07/18 08:50:59;;;;;;;90.32;85.88;;;;;;;;;;5034678;28;20057;-68
2022/07/18 08:53:25;;;;;;;95.05;90.35;;;;;;;;;;5035934;28;20036;-69
2022/07/18 08:55:50;;;;;;;99.63;94.68;;;;;;;;;;5037206;28;20542;-69
2022/07/18 08:58:17;;;;;;;108.53;103.15;;;;;;;;;;5038214;28;20044;-69
2022/07/18 09:00:44;;;;;;;89.72;85.20;;;;;;;;;;5037330;28;20622;-69
2022/07/18 09:03:09;;;;;;;82.25;78.15;;;;;;;;;;5036423;28;20039;-69
2022/07/18 09:05:34;;;;;;;91.03;86.55;;;;;;;;;;5038022;28;20120;-69
2022/07/18 09:08:19;;;;;;;94.68;89.97;;;;;;;;;;5038561;28;20025;-68
2022/07/18 09:10:59;;;;;;;86.50;82.20;;;;;;;;;;5033250;28;20059;-69
2022/07/18 09:13:35;;;;;;;80.82;76.80;;;;;;;;;;5036694;28;20037;-70
2022/07/18 09:16:09;;;;;;;89.47;85.05;;;;;;;;;;5038471;28;20029;-69
2022/07/18 09:18:38;;;;;;;117.85;111.97;;;;;;;;;;5032916;28;20021;-69
2022/07/18 09:21:07;;;;;;;184.43;175.30;;;;;;;;;;5035486;28;20060;-68
2022/07/18 09:23:34;;;;;;;151.50;143.90;;;;;;;;;;5037801;28;20247;-68
2022/07/18 09:26:00;;;;;;;103.72;98.60;;;;;;;;;;5037216;28;20048;-69
2022/07/18 09:28:27;;;;;;;86.15;81.88;;;;;;;;;;5037210;28;20123;-69
2022/07/18 09:30:54;;;;;;;147.98;140.57;;;;;;;;;;5037726;28;20110;-69
2022/07/18 09:33:21;;;;;;;138.13;131.27;;;;;;;;;;5037142;28;20025;-69
2022/07/18 09:35:54;;;;;;;296.65;281.90;;;;;;;;;;5037014;28;21091;-70
2022/07/18 09:38:28;;;;;;;147.65;140.30;;;;;;;;;;5037120;28;20040;-70
2022/07/18 09:40:54;;;;;;;273.88;260.27;;;;;;;;;;5035719;28;20367;-68
2022/07/18 09:43:22;;;;;;;256.63;243.93;;;;;;;;;;5038213;28;20033;-69
2022/07/18 09:45:53;;;;;;;222.52;211.50;;;;;;;;;;5036828;28;20060;-70
2022/07/18 09:48:22;;;;;;;274.77;260.98;;;;;;;;;;5034840;28;20028;-70
2022/07/18 09:51:00;;;;;;;286.95;272.63;;;;;;;;;;5034585;28;20045;-70
2022/07/18 09:53:29;;;;;;;193.25;183.63;;;;;;;;;;5036345;28;20043;-70
2022/07/18 09:55:57;;;;;;;268.73;255.32;;;;;;;;;;5038213;28;20025;-68
2022/07/18 09:58:28;;;;;;;294.40;279.75;;;;;;;;;;5038202;28;20064;-67
2022/07/18 10:00:55;;;;;;;270.05;256.65;;;;;;;;;;5037745;28;20048;-71
2022/07/18 10:03:21;;;;;;;265.95;252.82;;;;;;;;;;5037388;28;20028;-70
2022/07/18 10:05:48;;;;;;;222.43;211.43;;;;;;;;;;5038468;28;20041;-71
2022/07/18 10:08:16;;;;;;;249.25;236.95;;;;;;;;;;5035356;28;20053;-70
2022/07/18 10:10:43;;;;;;;234.13;222.60;;;;;;;;;;5034831;28;20076;-71
2022/07/18 10:13:09;;;;;;;204.65;194.38;;;;;;;;;;5033173;28;20032;-71
2022/07/18 10:15:37;;;;;;;209.43;199.15;;;;;;;;;;5039813;28;20039;-71
2022/07/18 10:18:05;;;;;;;228.63;217.30;;;;;;;;;;5035384;28;20033;-71
2022/07/18 10:20:32;;;;;;;188.90;179.45;;;;;;;;;;5033725;28;20033;-68
2022/07/18 10:23:05;;;;;;;198.00;188.10;;;;;;;;;;5036086;28;20082;-71
2022/07/18 10:25:30;;;;;;;188.40;179.02;;;;;;;;;;5035801;28;20045;-72
2022/07/18 10:28:10;;;;;;;202.38;192.35;;;;;;;;;;5034634;28;20105;-70
2022/07/18 10:30:42;;;;;;;191.88;182.18;;;;;;;;;;5037415;28;20565;-71
2022/07/18 10:33:47;;;;;;;228.88;217.50;;;;;;;;;;5035771;28;20103;-70
2022/07/18 10:36:17;;;;;;;186.38;177.02;;;;;;;;;;5038939;28;20129;-72
2022/07/18 10:39:20;;;;;;;234.43;222.80;;;;;;;;;;5036276;28;20090;-72
2022/07/18 10:41:46;;;;;;;196.30;186.55;;;;;;;;;;5038257;28;20028;-72
2022/07/18 10:44:20;;;;;;;186.48;177.27;;;;;;;;;;5037874;28;20709;-71
2022/07/18 10:47:05;;;;;;;198.18;188.35;;;;;;;;;;5038048;28;20029;-71
2022/07/18 10:49:49;;;;;;;203.93;193.82;;;;;;;;;;5032518;28;20045;-68
2022/07/18 10:52:26;;;;;;;206.15;195.80;;;;;;;;;;5035492;28;20061;-71
2022/07/18 10:55:22;;;;;;;224.13;212.85;;;;;;;;;;5038708;28;20590;-71
2022/07/18 10:57:49;;;;;;;228.55;217.15;;;;;;;;;;5035449;28;20045;-71
2022/07/18 11:00:26;;;;;;;227.15;216.00;;;;;;;;;;5036008;28;20052;-72
2022/07/18 11:03:01;;;;;;;235.90;224.10;;;;;;;;;;5037346;28;20120;-69
2022/07/18 11:05:26;;;;;;;241.38;229.45;;;;;;;;;;5034504;28;20033;-71
2022/07/18 11:07:57;;;;;;;216.48;205.77;;;;;;;;;;5035161;28;20908;-73
2022/07/18 11:10:41;;;;;;;227.88;216.48;;;;;;;;;;5033907;28;20127;-72
2022/07/18 11:13:24;;;;;;;257.65;244.75;;;;;;;;;;5035198;28;20029;-73
2022/07/18 11:15:58;;;;;;;141.13;134.13;;;;;;;;;;5036232;28;20037;-71
2022/07/18 11:18:24;;;;;;;241.07;229.18;;;;;;;;;;5033951;28;20028;-71
2022/07/18 11:20:50;;;;;;;204.50;194.38;;;;;;;;;;5035810;28;20514;-71
2022/07/18 11:23:27;;;;;;;191.13;181.70;;;;;;;;;;5034342;28;20124;-72
2022/07/18 11:25:55;;;;;;;139.32;132.40;;;;;;;;;;5019063;28;20045;-72
2022/07/18 11:28:22;;;;;;;132.30;125.70;;;;;;;;;;5032025;28;20048;-68
2022/07/18 11:30:59;;;;;;;119.88;113.95;;;;;;;;;;5033750;28;20028;-71
2022/07/18 11:33:27;;;;;;;138.13;131.27;;;;;;;;;;5031205;28;20379;-71
2022/07/18 11:36:01;;;;;;;130.52;124.00;;;;;;;;;;5031069;28;20099;-72
2022/07/18 11:38:26;;;;;;;144.50;137.32;;;;;;;;;;5032058;28;20029;-70
2022/07/18 11:40:52;;;;;;;132.30;125.78;;;;;;;;;;5031319;28;20115;-71
2022/07/18 11:43:25;;;;;;;133.25;126.60;;;;;;;;;;5030372;28;20856;-72
2022/07/18 11:46:02;;;;;;;145.07;137.85;;;;;;;;;;5029672;28;20044;-69
2022/07/18 11:48:27;;;;;;;89.65;85.20;;;;;;;;;;5028514;28;20026;-72
2022/07/18 11:50:53;;;;;;;136.68;129.90;;;;;;;;;;5034607;28;20503;-70
2022/07/18 11:53:18;;;;;;;73.95;70.28;;;;;;;;;;5033792;28;20041;-70
2022/07/18 11:55:44;;;;;;;144.20;136.93;;;;;;;;;;5035511;28;20174;-70
2022/07/18 11:58:14;;;;;;;100.65;95.68;;;;;;;;;;5038073;28;20078;-67
2022/07/18 12:00:41;;;;;;;145.73;137.68;;;;;;;;;;5035557;28;20033;-71
2022/07/18 12:03:15;;;;;;;93.55;88.93;;;;;;;;;;5034509;28;20597;-71
2022/07/18 12:05:52;;;;;;;116.38;110.63;;;;;;;;;;5034100;28;20171;-71
2022/07/18 12:08:27;;;;;;;93.47;88.80;;;;;;;;;;5033613;28;20060;-70
2022/07/18 12:11:14;;;;;;;51.88;49.28;;;;;;;;;;5037783;28;20036;-72
2022/07/18 12:13:45;;;;;;;49.65;47.15;;;;;;;;;;5032596;28;20032;-70
2022/07/18 12:16:38;;;;;;;48.13;45.67;;;;;;;;;;5037312;28;20381;-69
2022/07/18 12:19:10;;;;;;;45.97;43.60;;;;;;;;;;5030522;28;20525;-68
2022/07/18 12:21:46;;;;;;;47.35;44.95;;;;;;;;;;5031082;28;20127;-71
2022/07/18 12:24:24;;;;;;;123.10;117.00;;;;;;;;;;5033818;28;20096;-71
2022/07/18 12:27:08;;;;;;;54.13;51.33;;;;;;;;;;5038576;28;20029;-71
2022/07/18 12:29:59;;;;;;;94.57;89.88;;;;;;;;;;5033391;28;20356;-71
2022/07/18 12:32:26;;;;;;;48.50;46.00;;;;;;;;;;5034294;28;20032;-71
2022/07/18 12:35:01;;;;;;;48.92;46.42;;;;;;;;;;5035535;28;20040;-72
2022/07/18 12:37:27;;;;;;;50.55;47.97;;;;;;;;;;5032757;28;20033;-71
2022/07/18 12:40:01;;;;;;;55.58;52.78;;;;;;;;;;5031800;28;20037;-72
2022/07/18 12:42:32;;;;;;;49.72;47.13;;;;;;;;;;5033869;28;20057;-67
2022/07/18 12:44:59;;;;;;;60.25;57.25;;;;;;;;;;5034310;28;20048;-70
2022/07/18 12:47:24;;;;;;;51.03;48.42;;;;;;;;;;5033432;28;20030;-70
2022/07/18 12:49:50;;;;;;;54.05;51.35;;;;;;;;;;5032575;28;20380;-68
2022/07/18 12:52:17;;;;;;;57.55;54.65;;;;;;;;;;5034614;28;20037;-72
2022/07/18 12:54:42;;;;;;;65.10;61.85;;;;;;;;;;5031186;28;20038;-71
2022/07/18 12:57:07;;;;;;;56.08;53.28;;;;;;;;;;5034734;28;20017;-71
2022/07/18 12:59:33;;;;;;;69.85;66.35;;;;;;;;;;5035271;28;20056;-73
2022/07/18 13:01:58;;;;;;;60.08;57.00;;;;;;;;;;5034883;28;20406;-69
2022/07/18 13:04:23;;;;;;;61.28;58.17;;;;;;;;;;5032489;28;20577;-71
2022/07/18 13:06:49;;;;;;;51.42;48.83;;;;;;;;;;5035417;28;20044;-72
2022/07/18 13:09:14;;;;;;;42.50;40.33;;;;;;;;;;5034957;28;20040;-71
2022/07/18 13:11:40;;;;;;;49.35;46.85;;;;;;;;;;5031011;28;20041;-72
2022/07/18 13:14:06;;;;;;;48.30;45.88;;;;;;;;;;5035310;28;20022;-71
2022/07/18 13:16:31;;;;;;;58.42;55.53;;;;;;;;;;5033218;28;20095;-71
2022/07/18 13:18:57;;;;;;;63.08;59.92;;;;;;;;;;5030623;28;20033;-73
2022/07/18 13:21:22;;;;;;;61.17;58.13;;;;;;;;;;5033902;28;20090;-71
2022/07/18 13:23:47;;;;;;;63.17;59.97;;;;;;;;;;5031741;28;20115;-74
2022/07/18 13:26:13;;;;;;;54.35;51.58;;;;;;;;;;5034925;28;20172;-72
2022/07/18 13:28:38;;;;;;;56.58;53.78;;;;;;;;;;5033151;28;20044;-72
2022/07/18 13:31:03;;;;;;;59.47;56.50;;;;;;;;;;5031263;28;20033;-72
2022/07/18 13:33:29;;;;;;;58.05;55.05;;;;;;;;;;5031349;28;20673;-71
2022/07/18 13:35:54;;;;;;;59.30;56.30;;;;;;;;;;5034179;28;20025;-72
2022/07/18 13:38:19;;;;;;;52.50;49.83;;;;;;;;;;5032781;28;20036;-72
2022/07/18 13:40:45;;;;;;;56.25;53.45;;;;;;;;;;5032744;28;20033;-71
2022/07/18 13:43:11;;;;;;;55.45;52.65;;;;;;;;;;5033796;28;20103;-72
2022/07/18 13:45:38;;;;;;;71.45;67.90;;;;;;;;;;5032600;28;20044;-72
2022/07/18 13:48:04;;;;;;;60.45;57.40;;;;;;;;;;5032447;28;20172;-72
2022/07/18 13:50:29;;;;;;;54.65;51.90;;;;;;;;;;5032631;28;20064;-72
2022/07/18 13:52:55;;;;;;;58.72;55.47;;;;;;;;;;5033180;28;20116;-71
2022/07/18 13:55:20;;;;;;;95.00;90.32;;;;;;;;;;5031379;28;20427;-67
2022/07/18 13:57:46;;;;;;;84.93;80.72;;;;;;;;;;5031112;28;20052;-70
2022/07/18 14:00:12;;;;;;;115.70;110.03;;;;;;;;;;5030344;28;20037;-68
2022/07/18 14:02:37;;;;;;;89.93;85.47;;;;;;;;;;5033074;28;20850;-72
2022/07/18 14:05:03;;;;;;;64.70;61.45;;;;;;;;;;5036090;28;20033;-72